Time;durP1;ratioP1;P1;durP2;ratioP2;P2;SDS_P1;SDS_P2;PMS_P1;PMS_P2;Temp;Humidity;BMP_temperature;BMP_pressure;BME280_temperature;BME280_humidity;BME280_pressure;Samples;Min_cycle;Max_cycle;Signal;HPM_P1;HPM_P2
2021/01/20 00:01:03;;;;;;;15.63;8.90;;;6.40;99.90;;;;;;4952571;29;20055;-92
2021/01/20 00:03:29;;;;;;;16.83;10.63;;;6.40;99.90;;;;;;4968313;29;20043;-94
2021/01/20 00:05:55;;;;;;;16.83;9.20;;;6.40;99.90;;;;;;4952484;29;20063;-94
2021/01/20 00:08:21;;;;;;;19.05;10.05;;;6.40;99.90;;;;;;4936282;29;20098;-93
2021/01/20 00:10:47;;;;;;;13.77;8.35;;;6.40;99.90;;;;;;4968524;29;20020;-95
2021/01/20 00:13:15;;;;;;;12.60;8.68;;;6.40;99.90;;;;;;4968118;29;20031;-94
2021/01/20 00:15:42;;;;;;;15.80;8.82;;;6.40;99.90;;;;;;4952197;29;20031;-94
2021/01/20 00:18:07;;;;;;;13.45;7.95;;;6.40;99.90;;;;;;4952018;29;20032;-95
2021/01/20 00:20:33;;;;;;;16.75;9.45;;;6.40;99.90;;;;;;4951970;29;20032;-95
2021/01/20 00:22:59;;;;;;;16.95;9.02;;;6.40;99.90;;;;;;4937939;29;20059;-96
2021/01/20 00:25:25;;;;;;;15.65;9.25;;;6.40;99.90;;;;;;4954117;29;20042;-93
2021/01/20 00:27:53;;;;;;;15.48;8.35;;;6.40;99.90;;;;;;4953812;29;20122;-95
2021/01/20 00:30:19;;;;;;;10.18;6.75;;;6.40;99.90;;;;;;4952011;29;20531;-94
2021/01/20 00:32:44;;;;;;;13.00;7.22;;;6.30;99.90;;;;;;4951818;29;20031;-96
2021/01/20 00:35:13;;;;;;;14.73;7.82;;;6.30;99.90;;;;;;4952003;29;20035;-94
2021/01/20 00:37:39;;;;;;;11.70;7.95;;;6.30;99.90;;;;;;4952035;29;20035;-95
2021/01/20 00:40:06;;;;;;;15.05;7.82;;;6.20;99.90;;;;;;4951774;29;20035;-94
2021/01/20 00:42:32;;;;;;;11.65;6.78;;;6.30;99.90;;;;;;4951425;29;20054;-96
2021/01/20 00:44:57;;;;;;;17.10;9.10;;;6.20;99.90;;;;;;4951405;29;20484;-95
2021/01/20 00:47:23;;;;;;;11.27;6.88;;;6.20;99.90;;;;;;4950422;29;20023;-94
2021/01/20 00:49:49;;;;;;;12.20;7.10;;;6.10;99.90;;;;;;4951656;29;20565;-95
2021/01/20 00:52:15;;;;;;;11.70;7.38;;;6.20;99.90;;;;;;4935116;29;20043;-94
2021/01/20 00:54:40;;;;;;;15.93;7.45;;;6.10;99.90;;;;;;4935449;29;20035;-95
2021/01/20 00:57:07;;;;;;;12.90;6.47;;;6.10;99.90;;;;;;4951414;29;20121;-95
2021/01/20 00:59:32;;;;;;;11.60;6.57;;;6.10;99.90;;;;;;4951359;29;20086;-93
2021/01/20 01:01:58;;;;;;;9.35;5.88;;;6.10;99.90;;;;;;4951217;29;20039;-95
2021/01/20 01:04:32;;;;;;;9.18;4.78;;;6.10;99.90;;;;;;4936400;29;20075;-94
2021/01/20 01:06:58;;;;;;;9.80;6.22;;;6.10;99.90;;;;;;4951097;29;20023;-92
2021/01/20 01:09:23;;;;;;;12.77;5.70;;;6.10;99.90;;;;;;4951012;29;20068;-94
2021/01/20 01:11:49;;;;;;;12.27;4.68;;;6.10;99.90;;;;;;4951099;29;20055;-94
2021/01/20 01:14:15;;;;;;;12.43;4.28;;;6.10;99.90;;;;;;4950781;29;20027;-94
2021/01/20 01:16:53;;;;;;;10.52;4.28;;;6.10;99.90;;;;;;4936814;29;20046;-92
2021/01/20 01:19:33;;;;;;;7.35;4.85;;;6.10;99.90;;;;;;4951238;29;20031;-91
2021/01/20 01:21:59;;;;;;;9.48;3.90;;;6.20;99.90;;;;;;4934969;29;20046;-94
2021/01/20 01:24:26;;;;;;;8.82;5.15;;;6.10;99.90;;;;;;4950577;29;20062;-96
2021/01/20 01:26:52;;;;;;;13.32;4.80;;;6.20;99.90;;;;;;4950813;29;20027;-94
2021/01/20 01:29:18;;;;;;;9.90;4.53;;;6.20;99.90;;;;;;4950811;29;20043;-94
2021/01/20 01:31:51;;;;;;;13.02;5.90;;;6.10;99.90;;;;;;4951856;29;20059;-94
2021/01/20 01:34:18;;;;;;;11.45;5.63;;;6.20;99.90;;;;;;4950791;29;20070;-93
2021/01/20 01:36:43;;;;;;;9.85;5.90;;;6.20;99.90;;;;;;4950824;29;20019;-94
2021/01/20 01:39:29;;;;;;;11.70;5.20;;;6.20;99.90;;;;;;4933931;29;20043;-94
2021/01/20 01:41:55;;;;;;;9.68;4.95;;;6.20;99.90;;;;;;4950658;29;20027;-93
2021/01/20 01:44:21;;;;;;;13.48;5.53;;;6.20;99.90;;;;;;4950819;29;20046;-94
2021/01/20 01:46:57;;;;;;;11.10;5.85;;;6.20;99.90;;;;;;4950943;29;20027;-94
2021/01/20 01:49:31;;;;;;;11.98;5.55;;;6.30;99.90;;;;;;4950963;29;20039;-95
2021/01/20 01:52:00;;;;;;;10.05;5.55;;;6.20;99.90;;;;;;4950832;29;20047;-94
2021/01/20 01:54:39;;;;;;;10.30;4.50;;;6.20;99.90;;;;;;4952615;29;20039;-95
2021/01/20 01:57:16;;;;;;;10.25;5.15;;;6.20;99.90;;;;;;4950706;29;20027;-94
2021/01/20 01:59:48;;;;;;;10.65;5.13;;;6.20;99.90;;;;;;4970034;28;20557;-95
2021/01/20 02:02:30;;;;;;;10.55;4.93;;;6.20;99.90;;;;;;4956905;29;20093;-95
2021/01/20 02:04:56;;;;;;;9.50;5.20;;;6.20;99.90;;;;;;4970681;29;20031;-94
2021/01/20 02:07:27;;;;;;;9.50;4.70;;;6.20;99.90;;;;;;4970512;29;20058;-92
2021/01/20 02:09:55;;;;;;;10.93;5.03;;;6.20;99.90;;;;;;4970431;29;20074;-94
2021/01/20 02:12:33;;;;;;;5.28;3.22;;;6.20;99.90;;;;;;4970317;29;20043;-95
2021/01/20 02:15:02;;;;;;;10.40;4.10;;;6.20;99.90;;;;;;4938661;29;20031;-95
2021/01/20 02:17:47;;;;;;;7.97;4.50;;;6.20;99.90;;;;;;4939099;29;20039;-96
2021/01/20 02:20:25;;;;;;;9.60;3.90;;;6.20;99.90;;;;;;4970345;29;20042;-94
2021/01/20 02:22:56;;;;;;;10.60;4.97;;;6.20;99.90;;;;;;4938223;29;20027;-94
2021/01/20 02:26:01;;;;;;;12.35;4.63;;;6.10;99.90;;;;;;4950036;29;20070;-96
2021/01/20 02:29:14;;;;;;;8.15;4.18;;;6.10;99.90;;;;;;4955495;29;20092;-93
2021/01/20 02:31:48;;;;;;;13.13;5.25;;;6.20;99.90;;;;;;4926635;29;20031;-92
2021/01/20 02:34:20;;;;;;;10.38;5.75;;;6.20;99.90;;;;;;4954526;29;20031;-94
2021/01/20 02:36:46;;;;;;;13.52;6.35;;;6.20;99.90;;;;;;4954727;29;20094;-95
2021/01/20 02:39:30;;;;;;;8.63;4.40;;;6.20;99.90;;;;;;4953909;29;20031;-94
2021/01/20 02:42:16;;;;;;;8.60;4.90;;;6.20;99.90;;;;;;4956395;29;20159;-93
2021/01/20 02:44:49;;;;;;;10.52;5.05;;;6.30;99.90;;;;;;4953868;29;20046;-94
2021/01/20 02:47:46;;;;;;;9.05;4.22;;;6.30;99.90;;;;;;4954728;29;20036;-94
2021/01/20 02:50:16;;;;;;;12.07;5.40;;;6.20;99.90;;;;;;4953683;29;20098;-95
2021/01/20 02:52:48;;;;;;;11.07;4.80;;;6.20;99.90;;;;;;4934542;29;20535;-94
2021/01/20 02:55:56;;;;;;;11.23;5.20;;;6.20;99.90;;;;;;4932191;29;20040;-94
2021/01/20 02:58:46;;;;;;;9.75;4.70;;;6.30;99.90;;;;;;4950759;29;20043;-93
2021/01/20 03:01:30;;;;;;;8.15;3.58;;;6.30;99.90;;;;;;4968245;29;20031;-95
2021/01/20 03:04:00;;;;;;;10.10;5.47;;;6.30;99.90;;;;;;4969537;29;20130;-95
2021/01/20 03:06:31;;;;;;;9.05;5.28;;;6.40;99.90;;;;;;4969644;29;20032;-94
2021/01/20 03:08:59;;;;;;;8.82;4.82;;;6.40;99.90;;;;;;4954060;29;20045;-94
2021/01/20 03:11:28;;;;;;;12.95;5.65;;;6.30;99.90;;;;;;4953169;29;20085;-93
2021/01/20 03:13:57;;;;;;;9.48;4.38;;;6.30;99.90;;;;;;4953720;29;20032;-95
2021/01/20 03:16:28;;;;;;;9.07;4.82;;;6.30;99.90;;;;;;4969656;29;20039;-95
2021/01/20 03:18:57;;;;;;;8.40;5.07;;;6.30;99.90;;;;;;4969816;29;20039;-95
2021/01/20 03:21:26;;;;;;;8.50;4.55;;;6.30;99.90;;;;;;4969771;29;20035;-95
2021/01/20 03:23:54;;;;;;;10.13;5.80;;;6.40;99.90;;;;;;4969432;29;20046;-93
2021/01/20 03:26:22;;;;;;;9.65;5.03;;;6.40;99.90;;;;;;4969482;29;20038;-96
2021/01/20 03:28:50;;;;;;;6.95;4.35;;;6.40;99.90;;;;;;4969195;29;20031;-94
2021/01/20 03:31:19;;;;;;;6.80;3.08;;;6.30;99.90;;;;;;4953592;29;20031;-95
2021/01/20 03:33:47;;;;;;;7.03;2.90;;;6.30;99.90;;;;;;4953773;29;20035;-96
2021/01/20 03:36:16;;;;;;;6.88;3.10;;;6.20;99.90;;;;;;4954055;29;20031;-96
2021/01/20 03:38:44;;;;;;;4.43;2.35;;;6.20;99.90;;;;;;4954220;29;20031;-96
2021/01/20 03:41:13;;;;;;;5.82;3.20;;;6.20;99.90;;;;;;4953833;29;20032;-96
2021/01/20 03:43:41;;;;;;;7.35;2.72;;;6.20;99.90;;;;;;4953276;29;20043;-95
2021/01/20 03:46:10;;;;;;;4.57;1.98;;;6.30;99.90;;;;;;4953618;29;20027;-96
2021/01/20 03:48:38;;;;;;;6.35;2.50;;;6.30;99.90;;;;;;4953771;29;20046;-95
2021/01/20 03:51:06;;;;;;;6.57;2.20;;;6.30;99.90;;;;;;4953525;29;20035;-96
2021/01/20 03:53:34;;;;;;;5.72;2.47;;;6.40;99.90;;;;;;4953208;29;20090;-94
2021/01/20 03:56:02;;;;;;;5.45;2.70;;;6.50;99.90;;;;;;4969182;29;20114;-95
2021/01/20 03:58:31;;;;;;;4.75;2.13;;;6.60;99.90;;;;;;4953349;29;20027;-95
2021/01/20 04:00:59;;;;;;;5.07;2.40;;;6.60;99.90;;;;;;4953699;29;20095;-96
2021/01/20 04:03:25;;;;;;;6.22;2.60;;;6.60;99.90;;;;;;4936786;29;20067;-95
2021/01/20 04:06:29;;;;;;;5.35;2.30;;;6.70;99.90;;;;;;4955659;29;20031;-95
2021/01/20 04:08:55;;;;;;;6.50;2.58;;;6.70;99.90;;;;;;4968902;29;20023;-95
2021/01/20 04:11:21;;;;;;;6.82;2.33;;;6.70;99.90;;;;;;4952289;29;20028;-95
2021/01/20 04:13:47;;;;;;;5.40;1.48;;;6.70;99.90;;;;;;4951953;29;20039;-93
2021/01/20 04:16:13;;;;;;;6.93;2.10;;;6.70;99.90;;;;;;4968492;29;20031;-94
2021/01/20 04:18:39;;;;;;;3.65;1.92;;;6.80;99.90;;;;;;4968424;28;20035;-95
2021/01/20 04:21:05;;;;;;;3.72;1.67;;;6.80;99.90;;;;;;4952233;29;20031;-95
2021/01/20 04:23:31;;;;;;;4.93;2.05;;;6.80;99.90;;;;;;4967963;29;20039;-94
2021/01/20 04:25:56;;;;;;;3.67;1.73;;;6.80;99.90;;;;;;4951951;29;20038;-95
2021/01/20 04:28:23;;;;;;;8.30;2.47;;;6.90;99.90;;;;;;4952077;29;20579;-93
2021/01/20 04:30:48;;;;;;;5.20;1.65;;;6.90;99.90;;;;;;4951959;29;20034;-96
2021/01/20 04:33:14;;;;;;;7.28;2.05;;;6.90;99.90;;;;;;4952028;29;20066;-95
2021/01/20 04:35:40;;;;;;;4.07;1.65;;;6.80;99.90;;;;;;4952155;29;20058;-95
2021/01/20 04:38:05;;;;;;;5.10;1.70;;;6.80;99.90;;;;;;4952012;29;20177;-95
2021/01/20 04:40:31;;;;;;;6.28;1.83;;;6.80;99.90;;;;;;4951678;29;20045;-96
2021/01/20 04:43:17;;;;;;;4.35;1.80;;;6.80;99.90;;;;;;4951709;29;20115;-94
2021/01/20 04:45:43;;;;;;;5.03;2.08;;;6.90;99.90;;;;;;4878055;29;20044;-94
2021/01/20 04:48:09;;;;;;;5.75;2.00;;;6.90;99.90;;;;;;4893455;29;20135;-95
2021/01/20 04:50:36;;;;;;;5.00;2.15;;;7.00;99.90;;;;;;4893890;29;20036;-94
2021/01/20 04:53:10;;;;;;;5.47;1.88;;;6.90;99.90;;;;;;4893391;29;20155;-95
2021/01/20 04:55:43;;;;;;;6.80;2.75;;;6.90;99.90;;;;;;4878310;29;20043;-94
2021/01/20 04:58:10;;;;;;;7.43;2.80;;;7.00;99.90;;;;;;4878676;29;20051;-94
2021/01/20 05:00:38;;;;;;;5.28;2.33;;;7.00;99.90;;;;;;4878147;29;20059;-93
2021/01/20 05:03:06;;;;;;;5.60;2.47;;;7.00;99.90;;;;;;4893786;29;20153;-94
2021/01/20 05:05:32;;;;;;;4.65;2.10;;;7.10;99.90;;;;;;4877910;29;20033;-96
2021/01/20 05:08:00;;;;;;;6.75;2.75;;;7.00;99.90;;;;;;4878348;29;20048;-92
2021/01/20 05:10:26;;;;;;;6.68;2.90;;;6.90;99.90;;;;;;4877956;29;20100;-93
2021/01/20 05:12:51;;;;;;;5.95;2.63;;;6.90;99.90;;;;;;4877829;29;20433;-92
2021/01/20 05:15:27;;;;;;;6.97;3.13;;;6.90;99.90;;;;;;4877582;29;20048;-95
2021/01/20 05:18:01;;;;;;;7.35;2.53;;;6.90;99.90;;;;;;4877871;29;20468;-95
2021/01/20 05:20:32;;;;;;;5.40;2.67;;;6.90;99.90;;;;;;4877910;29;20039;-95
2021/01/20 05:23:08;;;;;;;5.50;2.78;;;6.80;99.90;;;;;;4918936;29;20042;-95
2021/01/20 05:25:39;;;;;;;5.95;1.95;;;6.80;99.90;;;;;;4951457;29;20102;-94
2021/01/20 05:28:25;;;;;;;4.30;1.45;;;6.90;99.90;;;;;;4951481;29;20031;-95
2021/01/20 05:30:56;;;;;;;4.70;1.95;;;6.90;99.90;;;;;;4950669;29;20066;-93
2021/01/20 05:33:34;;;;;;;3.38;1.55;;;6.90;99.90;;;;;;4941249;29;20031;-96
2021/01/20 05:36:08;;;;;;;4.18;1.45;;;6.90;99.90;;;;;;4948480;29;20022;-96
2021/01/20 05:38:41;;;;;;;4.47;2.22;;;7.00;99.90;;;;;;4953033;29;20028;-95
2021/01/20 05:41:16;;;;;;;4.60;2.17;;;7.00;99.90;;;;;;4953544;29;20048;-95
2021/01/20 05:43:42;;;;;;;3.65;1.23;;;7.00;99.90;;;;;;4951982;29;20072;-94
2021/01/20 05:46:10;;;;;;;5.55;1.98;;;7.10;99.90;;;;;;4934625;29;20098;-95
2021/01/20 05:48:49;;;;;;;3.90;1.77;;;7.10;99.90;;;;;;4936867;29;20068;-96
2021/01/20 05:51:15;;;;;;;4.38;1.40;;;7.10;99.90;;;;;;4936803;29;20031;-96
2021/01/20 05:53:54;;;;;;;3.42;1.30;;;7.20;99.90;;;;;;4971203;29;20054;-96
2021/01/20 05:56:29;;;;;;;2.70;1.23;;;7.20;99.90;;;;;;4969977;29;20051;-96
2021/01/20 05:58:57;;;;;;;4.78;1.85;;;7.10;99.90;;;;;;4971431;29;20062;-96
2021/01/20 06:01:26;;;;;;;5.30;1.60;;;7.20;99.90;;;;;;4969098;29;20107;-94
2021/01/20 06:03:53;;;;;;;6.05;1.92;;;7.20;99.90;;;;;;4937770;29;20047;-96
2021/01/20 06:06:20;;;;;;;4.32;2.10;;;7.20;99.90;;;;;;4953601;29;20027;-95
2021/01/20 06:08:46;;;;;;;3.15;1.60;;;7.10;99.90;;;;;;4941183;29;20078;-96
2021/01/20 06:11:13;;;;;;;4.05;2.20;;;7.20;99.90;;;;;;4939705;29;20032;-96
2021/01/20 06:13:39;;;;;;;4.40;1.60;;;7.20;99.90;;;;;;4955125;29;20095;-94
2021/01/20 06:16:19;;;;;;;4.97;1.40;;;7.20;99.90;;;;;;4955263;29;20039;-96
2021/01/20 06:18:54;;;;;;;3.78;1.60;;;7.20;99.90;;;;;;4956112;29;20039;-95
2021/01/20 06:21:20;;;;;;;3.13;1.25;;;7.20;99.90;;;;;;4939788;29;20043;-95
2021/01/20 06:24:09;;;;;;;3.67;1.80;;;7.20;99.90;;;;;;4955497;29;20042;-95
2021/01/20 06:27:00;;;;;;;4.28;1.17;;;7.30;99.90;;;;;;4957669;29;20043;-95
2021/01/20 06:29:31;;;;;;;5.53;1.23;;;7.30;99.90;;;;;;4945078;29;20066;-96
2021/01/20 06:31:58;;;;;;;3.35;1.50;;;7.30;99.90;;;;;;4940563;29;20035;-96
2021/01/20 06:34:25;;;;;;;3.38;1.30;;;7.30;99.90;;;;;;4956036;29;20042;-96
2021/01/20 06:36:51;;;;;;;2.97;1.17;;;7.30;99.90;;;;;;4951166;29;20067;-96
2021/01/20 06:39:33;;;;;;;4.63;0.88;;;7.30;99.90;;;;;;4937543;29;20032;-96
2021/01/20 06:42:01;;;;;;;2.70;1.02;;;7.30;99.90;;;;;;4935528;29;20117;-96
2021/01/20 06:44:27;;;;;;;2.97;0.82;;;7.30;99.90;;;;;;4935606;29;20590;-95
2021/01/20 06:46:56;;;;;;;2.17;0.60;;;7.30;99.90;;;;;;4935963;29;20055;-95
2021/01/20 06:49:28;;;;;;;4.05;0.70;;;7.30;99.90;;;;;;4939506;29;20135;-93
2021/01/20 06:52:14;;;;;;;2.75;0.80;;;7.40;99.90;;;;;;4933047;29;20094;-95
2021/01/20 06:54:43;;;;;;;2.00;0.70;;;7.40;99.90;;;;;;4942887;29;20052;-96
2021/01/20 06:57:27;;;;;;;3.22;0.80;;;7.50;99.90;;;;;;4956723;29;20182;-94
2021/01/20 07:00:15;;;;;;;4.75;1.08;;;7.50;99.90;;;;;;4956487;29;20440;-96
2021/01/20 07:03:08;;;;;;;2.33;0.60;;;7.40;99.90;;;;;;4924738;29;20027;-96
2021/01/20 07:05:40;;;;;;;2.42;1.10;;;7.50;99.90;;;;;;4940308;29;20027;-95
2021/01/20 07:08:07;;;;;;;1.95;0.70;;;7.40;99.90;;;;;;4957054;29;20042;-96
2021/01/20 07:11:02;;;;;;;3.75;1.08;;;7.40;99.90;;;;;;4952224;29;20079;-93
2021/01/20 07:13:38;;;;;;;2.80;1.63;;;7.40;99.90;;;;;;4950090;29;20083;-94
2021/01/20 07:16:06;;;;;;;3.78;0.70;;;7.40;99.90;;;;;;4950194;29;20039;-95
2021/01/20 07:18:32;;;;;;;2.58;1.55;;;7.40;99.90;;;;;;4950371;29;20032;-94
2021/01/20 07:20:58;;;;;;;3.05;0.80;;;7.40;99.90;;;;;;4950354;29;20103;-95
2021/01/20 07:23:27;;;;;;;3.47;1.15;;;7.50;99.90;;;;;;4949856;29;20083;-92
2021/01/20 07:25:53;;;;;;;3.28;0.90;;;7.40;99.90;;;;;;4949955;29;20055;-95
2021/01/20 07:28:20;;;;;;;3.70;1.02;;;7.50;99.90;;;;;;4949873;29;20039;-95
2021/01/20 07:30:46;;;;;;;3.63;0.90;;;7.50;99.90;;;;;;4949867;29;20036;-95
2021/01/20 07:33:21;;;;;;;2.17;0.70;;;7.40;99.90;;;;;;4949582;29;20027;-94
2021/01/20 07:35:48;;;;;;;3.72;0.80;;;7.50;99.90;;;;;;4949853;29;20040;-93
2021/01/20 07:38:14;;;;;;;4.65;1.33;;;7.50;99.90;;;;;;4950039;29;20062;-94
2021/01/20 07:40:43;;;;;;;2.20;0.80;;;7.50;99.90;;;;;;4949991;29;20035;-94
2021/01/20 07:43:23;;;;;;;2.72;0.93;;;7.50;99.90;;;;;;4949242;29;20039;-93
2021/01/20 07:45:50;;;;;;;2.22;0.60;;;7.50;99.90;;;;;;4949524;29;20055;-94
2021/01/20 07:48:17;;;;;;;1.40;0.50;;;7.40;99.90;;;;;;4949283;29;20095;-93
2021/01/20 07:50:47;;;;;;;2.60;0.90;;;7.50;99.90;;;;;;4965764;29;20252;-94
2021/01/20 07:53:16;;;;;;;2.60;0.88;;;7.50;99.90;;;;;;4953074;29;20043;-94
2021/01/20 07:55:42;;;;;;;1.52;0.65;;;7.50;99.90;;;;;;4953152;28;20039;-94
2021/01/20 07:58:07;;;;;;;3.22;0.70;;;7.50;99.90;;;;;;4968389;29;20502;-94
2021/01/20 08:00:47;;;;;;;3.05;0.70;;;7.50;99.90;;;;;;4952411;29;20035;-92
2021/01/20 08:03:14;;;;;;;3.40;0.70;;;7.50;99.90;;;;;;4952022;29;20043;-94
2021/01/20 08:05:41;;;;;;;1.83;0.55;;;7.50;99.90;;;;;;4968269;29;20031;-94
2021/01/20 08:08:12;;;;;;;2.05;0.60;;;7.50;99.90;;;;;;4968204;29;20066;-94
2021/01/20 08:10:39;;;;;;;1.77;0.70;;;7.50;99.90;;;;;;4968482;29;20111;-93
2021/01/20 08:13:12;;;;;;;3.63;0.70;;;7.50;99.90;;;;;;4967689;29;20039;-94
2021/01/20 08:15:40;;;;;;;1.55;0.50;;;7.60;99.90;;;;;;4951490;29;20035;-94
2021/01/20 08:18:09;;;;;;;3.40;0.60;;;7.50;99.90;;;;;;4967288;29;20047;-95
2021/01/20 08:20:35;;;;;;;2.38;0.60;;;7.60;99.90;;;;;;4967502;29;20027;-94
2021/01/20 08:23:04;;;;;;;3.17;0.88;;;7.50;99.90;;;;;;4967229;29;20058;-93
2021/01/20 08:25:31;;;;;;;1.40;0.50;;;7.50;99.90;;;;;;4935321;29;20051;-94
2021/01/20 08:28:10;;;;;;;2.33;0.65;;;7.50;99.90;;;;;;4967179;29;20103;-94
2021/01/20 08:30:36;;;;;;;2.20;0.52;;;7.50;99.90;;;;;;4967162;29;20031;-94
2021/01/20 08:33:02;;;;;;;6.35;0.63;;;7.50;99.90;;;;;;4951271;29;20035;-95
2021/01/20 08:35:36;;;;;;;2.78;0.85;;;7.60;99.90;;;;;;4951126;29;20038;-92
2021/01/20 08:38:03;;;;;;;1.98;0.68;;;7.60;99.90;;;;;;4950961;29;20038;-93
2021/01/20 08:40:29;;;;;;;2.78;0.80;;;7.60;99.90;;;;;;4950865;29;20035;-94
2021/01/20 08:42:55;;;;;;;2.88;0.60;;;7.60;99.90;;;;;;4950693;29;20038;-94
2021/01/20 08:45:21;;;;;;;5.53;1.02;;;7.60;99.90;;;;;;4951288;29;20042;-93
2021/01/20 08:48:02;;;;;;;3.05;0.90;;;7.60;99.90;;;;;;4935302;29;20031;-95
2021/01/20 08:50:30;;;;;;;2.85;0.95;;;7.50;99.90;;;;;;4950862;29;20038;-94
2021/01/20 08:53:01;;;;;;;2.75;0.90;;;7.50;99.90;;;;;;4950744;29;20031;-94
2021/01/20 08:55:29;;;;;;;1.65;0.55;;;7.40;99.90;;;;;;4966635;29;20059;-93
2021/01/20 08:58:21;;;;;;;2.30;0.45;;;7.40;99.90;;;;;;4950728;29;20028;-93
2021/01/20 09:00:57;;;;;;;1.50;0.60;;;7.40;99.90;;;;;;4966651;29;20068;-96
2021/01/20 09:03:26;;;;;;;3.25;0.77;;;7.50;99.90;;;;;;4950756;29;20074;-94
2021/01/20 09:05:53;;;;;;;2.13;0.60;;;7.50;99.90;;;;;;4966759;29;20059;-94
2021/01/20 09:08:20;;;;;;;1.90;0.85;;;7.50;99.90;;;;;;4966116;28;20392;-95
2021/01/20 09:10:47;;;;;;;3.47;1.00;;;7.50;99.90;;;;;;4934752;29;20043;-94
2021/01/20 09:13:14;;;;;;;2.38;1.00;;;7.50;99.90;;;;;;4950392;29;20041;-94
2021/01/20 09:15:41;;;;;;;1.80;0.60;;;7.60;99.90;;;;;;4966516;29;20072;-94
2021/01/20 09:18:07;;;;;;;2.42;0.90;;;7.60;99.90;;;;;;4966452;29;20098;-95
2021/01/20 09:20:36;;;;;;;2.47;0.50;;;7.70;99.90;;;;;;4934413;29;20095;-94
2021/01/20 09:23:03;;;;;;;1.55;0.57;;;7.70;99.90;;;;;;4966199;29;20039;-94
2021/01/20 09:25:30;;;;;;;0.93;0.40;;;7.80;99.90;;;;;;4966487;29;20050;-94
2021/01/20 09:27:55;;;;;;;1.83;0.57;;;7.80;99.90;;;;;;4966663;29;20312;-95
2021/01/20 09:30:22;;;;;;;1.70;0.63;;;7.90;99.90;;;;;;4966516;29;20035;-95
2021/01/20 09:32:48;;;;;;;1.55;0.60;;;7.90;99.90;;;;;;4950319;29;20031;-94
2021/01/20 09:35:15;;;;;;;3.42;0.60;;;8.00;99.90;;;;;;4950287;29;20039;-93
2021/01/20 09:37:42;;;;;;;2.22;0.80;;;8.10;99.90;;;;;;4966195;29;20031;-94
2021/01/20 09:40:10;;;;;;;4.60;0.90;;;8.10;99.90;;;;;;4950486;29;20039;-94
2021/01/20 09:42:36;;;;;;;3.10;0.80;;;8.10;99.90;;;;;;4949745;29;20527;-94
2021/01/20 09:45:04;;;;;;;3.78;0.95;;;8.20;99.90;;;;;;4950275;29;20050;-93
2021/01/20 09:47:30;;;;;;;1.77;0.60;;;8.20;99.90;;;;;;4950341;29;20027;-96
2021/01/20 09:49:56;;;;;;;1.83;0.60;;;8.20;99.90;;;;;;4950015;29;20038;-93
2021/01/20 09:52:25;;;;;;;1.35;0.50;;;8.20;99.90;;;;;;4949973;29;20027;-95
2021/01/20 09:54:54;;;;;;;2.10;0.60;;;8.30;99.90;;;;;;4950205;29;20047;-93
2021/01/20 09:57:21;;;;;;;1.25;0.50;;;8.30;99.90;;;;;;4950576;29;20086;-95
2021/01/20 09:59:47;;;;;;;2.30;0.60;;;8.40;99.90;;;;;;4950560;29;20031;-94
2021/01/20 10:02:13;;;;;;;1.75;0.55;;;8.60;99.90;;;;;;4950157;29;20035;-93
2021/01/20 10:04:40;;;;;;;1.85;0.68;;;8.70;99.90;;;;;;4950048;29;20050;-95
2021/01/20 10:07:05;;;;;;;2.55;0.75;;;8.80;99.90;;;;;;4949834;29;20034;-93
2021/01/20 10:09:32;;;;;;;2.00;0.50;;;8.90;99.90;;;;;;4949980;29;20039;-94
2021/01/20 10:11:58;;;;;;;3.33;0.50;;;8.90;99.90;;;;;;4949735;29;20050;-94
2021/01/20 10:14:24;;;;;;;1.90;0.60;;;9.20;99.90;;;;;;4950160;29;20023;-93
2021/01/20 10:16:52;;;;;;;2.95;0.50;;;9.20;99.90;;;;;;4949957;29;20039;-94
2021/01/20 10:19:18;;;;;;;1.27;0.30;;;9.20;99.90;;;;;;4950868;29;20133;-94
2021/01/20 10:21:44;;;;;;;1.85;0.40;;;9.10;99.90;;;;;;4953620;29;20468;-93
2021/01/20 10:24:10;;;;;;;2.00;0.50;;;9.10;99.90;;;;;;4953644;29;20075;-94
2021/01/20 10:26:40;;;;;;;1.60;0.52;;;9.10;99.90;;;;;;4953708;29;20031;-94
2021/01/20 10:29:07;;;;;;;2.00;0.60;;;9.00;99.90;;;;;;4953754;29;20035;-94
2021/01/20 10:31:36;;;;;;;2.25;0.50;;;9.00;99.90;;;;;;4953911;29;20126;-93
2021/01/20 10:34:02;;;;;;;1.50;0.50;;;8.90;99.90;;;;;;4938496;29;20040;-91
2021/01/20 10:36:30;;;;;;;1.48;0.50;;;8.90;99.90;;;;;;4953238;29;20027;-94
2021/01/20 10:38:55;;;;;;;1.08;0.40;;;8.90;99.90;;;;;;4953423;29;20035;-93
2021/01/20 10:41:22;;;;;;;1.45;0.50;;;8.90;99.90;;;;;;4937056;29;20099;-92
2021/01/20 10:43:49;;;;;;;1.38;0.50;;;8.90;99.90;;;;;;4953225;29;20042;-92
2021/01/20 10:46:16;;;;;;;2.53;0.43;;;8.90;99.90;;;;;;4953354;29;20462;-93
2021/01/20 10:48:43;;;;;;;2.67;0.50;;;9.00;99.90;;;;;;4953106;29;20066;-94
2021/01/20 10:51:10;;;;;;;1.70;0.50;;;9.10;99.90;;;;;;4953256;29;20094;-95
2021/01/20 10:53:40;;;;;;;1.90;0.40;;;9.20;99.90;;;;;;4934310;29;20040;-93
2021/01/20 10:56:06;;;;;;;1.48;0.60;;;9.20;99.90;;;;;;4934086;29;20043;-92
2021/01/20 10:58:32;;;;;;;3.00;0.60;;;9.30;99.90;;;;;;4934060;29;20035;-94
2021/01/20 11:00:58;;;;;;;2.50;0.65;;;9.30;99.90;;;;;;4917722;29;20035;-94
2021/01/20 11:03:24;;;;;;;1.67;0.40;;;9.40;99.90;;;;;;4933591;29;20076;-94
2021/01/20 11:05:49;;;;;;;1.60;0.52;;;9.50;99.90;;;;;;4917950;29;20039;-93
2021/01/20 11:08:15;;;;;;;3.45;0.73;;;9.60;99.90;;;;;;4933771;29;20622;-93
2021/01/20 11:10:41;;;;;;;3.15;0.40;;;9.70;99.90;;;;;;4933738;29;20067;-92
2021/01/20 11:13:09;;;;;;;3.33;1.17;;;9.70;99.90;;;;;;4933757;29;20032;-92
2021/01/20 11:15:45;;;;;;;1.80;0.50;;;9.60;99.90;;;;;;4917960;29;20053;-94
2021/01/20 11:18:14;;;;;;;1.70;0.50;;;9.60;99.90;;;;;;4933987;29;20032;-94
2021/01/20 11:20:41;;;;;;;1.63;0.50;;;9.60;99.90;;;;;;4934535;29;20078;-94
2021/01/20 11:23:10;;;;;;;1.90;0.50;;;9.50;99.90;;;;;;4934416;29;20070;-95
2021/01/20 11:25:36;;;;;;;1.83;0.50;;;9.60;99.90;;;;;;4918375;29;20035;-94
2021/01/20 11:28:02;;;;;;;2.33;0.50;;;9.60;99.90;;;;;;4933343;29;20036;-93
2021/01/20 11:30:28;;;;;;;2.85;0.45;;;9.60;99.90;;;;;;4945481;28;20043;-94
2021/01/20 11:32:54;;;;;;;1.60;0.50;;;9.60;99.90;;;;;;4952199;29;20031;-95
2021/01/20 11:35:20;;;;;;;1.23;0.40;;;9.60;99.90;;;;;;4936517;29;20043;-94
2021/01/20 11:37:46;;;;;;;1.60;0.40;;;9.60;99.90;;;;;;4936683;29;20170;-94
2021/01/20 11:40:12;;;;;;;1.30;0.30;;;9.50;99.90;;;;;;4936630;29;20043;-93
2021/01/20 11:42:38;;;;;;;1.83;0.30;;;9.60;99.90;;;;;;4936330;29;20031;-94
2021/01/20 11:45:05;;;;;;;1.50;0.45;;;9.50;99.90;;;;;;4936345;29;20071;-92
2021/01/20 11:47:30;;;;;;;4.38;0.40;;;9.50;99.90;;;;;;4952113;29;20032;-93
2021/01/20 11:49:56;;;;;;;2.40;0.40;;;9.60;99.90;;;;;;4936361;29;20372;-93
2021/01/20 11:52:22;;;;;;;0.98;0.30;;;9.50;99.90;;;;;;4943043;29;20385;-93
2021/01/20 11:54:48;;;;;;;2.42;0.38;;;9.50;99.90;;;;;;4932655;29;20095;-94
2021/01/20 11:57:14;;;;;;;1.33;0.30;;;9.60;99.90;;;;;;4917281;29;20032;-93
2021/01/20 11:59:40;;;;;;;2.13;0.47;;;9.60;99.90;;;;;;4933190;29;20039;-93
2021/01/20 12:02:07;;;;;;;2.22;0.50;;;9.60;99.90;;;;;;4933151;29;20515;-92
2021/01/20 12:04:39;;;;;;;1.55;0.30;;;9.60;99.90;;;;;;4932947;29;20040;-93
2021/01/20 12:07:04;;;;;;;0.95;0.30;;;9.60;99.90;;;;;;4933025;29;20032;-93
2021/01/20 12:09:30;;;;;;;1.50;0.30;;;9.50;99.90;;;;;;4932871;29;20031;-93
2021/01/20 12:11:56;;;;;;;1.52;0.40;;;9.60;99.90;;;;;;4916971;29;20028;-94
2021/01/20 12:14:21;;;;;;;1.63;0.40;;;9.70;99.90;;;;;;4932799;29;20126;-93
2021/01/20 12:16:47;;;;;;;1.10;0.30;;;9.70;99.90;;;;;;4932726;29;20027;-93
2021/01/20 12:19:13;;;;;;;1.20;0.30;;;9.80;99.90;;;;;;4932532;29;20050;-93
2021/01/20 12:21:38;;;;;;;3.58;0.70;;;9.70;99.90;;;;;;4932850;29;20028;-92
2021/01/20 12:24:06;;;;;;;1.00;0.30;;;9.70;99.90;;;;;;4932597;29;20039;-93
2021/01/20 12:26:31;;;;;;;1.13;0.30;;;9.60;99.90;;;;;;4916838;29;20036;-93
2021/01/20 12:28:57;;;;;;;2.97;0.40;;;9.60;99.90;;;;;;4933661;29;20043;-93
2021/01/20 12:31:23;;;;;;;1.90;0.60;;;9.50;99.90;;;;;;4935332;29;20483;-92
2021/01/20 12:33:48;;;;;;;1.65;0.40;;;9.40;99.90;;;;;;4935457;29;20095;-91
2021/01/20 12:36:14;;;;;;;1.55;0.30;;;9.40;99.90;;;;;;4951472;29;20471;-92
2021/01/20 12:38:40;;;;;;;4.10;0.40;;;9.40;99.90;;;;;;4935684;29;20070;-92
2021/01/20 12:41:05;;;;;;;2.55;0.30;;;9.40;99.90;;;;;;4935185;29;20067;-91
2021/01/20 12:43:31;;;;;;;1.42;0.40;;;9.50;99.90;;;;;;4951001;29;20035;-93
2021/01/20 12:45:57;;;;;;;1.10;0.30;;;9.40;99.90;;;;;;4935322;29;20031;-92
2021/01/20 12:48:23;;;;;;;1.30;0.40;;;9.40;99.90;;;;;;4935387;29;20332;-93
2021/01/20 12:50:48;;;;;;;2.70;0.40;;;9.40;99.90;;;;;;4935195;29;20046;-93
2021/01/20 12:53:15;;;;;;;1.35;0.40;;;9.40;99.90;;;;;;4919613;29;20028;-93
2021/01/20 12:55:40;;;;;;;2.05;0.50;;;9.30;99.90;;;;;;4915807;29;20052;-93
2021/01/20 12:58:06;;;;;;;3.67;0.60;;;9.30;99.90;;;;;;4931804;29;20031;-92
2021/01/20 13:00:32;;;;;;;1.73;0.40;;;9.30;99.90;;;;;;4931350;29;20043;-92
2021/01/20 13:02:58;;;;;;;2.92;0.50;;;9.30;99.90;;;;;;4915850;29;20039;-91
2021/01/20 13:05:25;;;;;;;2.40;0.50;;;9.30;99.90;;;;;;4931900;29;20039;-92
2021/01/20 13:07:50;;;;;;;1.95;0.40;;;9.30;99.90;;;;;;4933025;29;20028;-92